sensor_id;sensor_type;location;lat;lon;timestamp;pressure;altitude;pressure_sealevel;temperature;humidity
69058;BME280;56128;37.534;-122.308;2023-08-17T00:00:42;100938.38;;;27.30;68.25
69058;BME280;56128;37.534;-122.308;2023-08-17T00:03:08;100937.78;;;27.28;66.64
69058;BME280;56128;37.534;-122.308;2023-08-17T00:05:34;100937.31;;;27.31;67.97
69058;BME280;56128;37.534;-122.308;2023-08-17T00:08:00;100936.88;;;27.34;66.72
69058;BME280;56128;37.534;-122.308;2023-08-17T00:10:28;100934.72;;;27.36;67.70
69058;BME280;56128;37.534;-122.308;2023-08-17T00:12:53;100943.41;;;27.40;66.69
69058;BME280;56128;37.534;-122.308;2023-08-17T00:15:19;100938.72;;;27.41;67.78
69058;BME280;56128;37.534;-122.308;2023-08-17T00:17:45;100940.41;;;27.42;66.63
69058;BME280;56128;37.534;-122.308;2023-08-17T00:20:11;100933.84;;;27.43;66.14
69058;BME280;56128;37.534;-122.308;2023-08-17T00:22:38;100925.63;;;27.43;65.63
69058;BME280;56128;37.534;-122.308;2023-08-17T00:25:04;100932.56;;;27.45;66.06
69058;BME280;56128;37.534;-122.308;2023-08-17T00:27:31;100928.53;;;27.48;65.54
69058;BME280;56128;37.534;-122.308;2023-08-17T00:29:57;100935.06;;;27.47;64.39
69058;BME280;56128;37.534;-122.308;2023-08-17T00:32:23;100940.13;;;27.50;64.10
69058;BME280;56128;37.534;-122.308;2023-08-17T00:34:49;100929.53;;;27.53;63.12
69058;BME280;56128;37.534;-122.308;2023-08-17T00:37:14;100942.59;;;27.58;62.08
69058;BME280;56128;37.534;-122.308;2023-08-17T00:39:40;100938.03;;;27.70;62.88
69058;BME280;56128;37.534;-122.308;2023-08-17T00:42:06;100939.28;;;27.75;62.54
69058;BME280;56128;37.534;-122.308;2023-08-17T00:44:33;100940.25;;;27.80;62.09
69058;BME280;56128;37.534;-122.308;2023-08-17T00:46:59;100933.03;;;27.86;63.91
69058;BME280;56128;37.534;-122.308;2023-08-17T00:49:25;100944.84;;;27.86;61.91
69058;BME280;56128;37.534;-122.308;2023-08-17T00:51:51;100949.38;;;27.81;60.70
69058;BME280;56128;37.534;-122.308;2023-08-17T00:54:17;100953.94;;;27.68;60.33
69058;BME280;56128;37.534;-122.308;2023-08-17T00:56:47;100950.31;;;27.68;61.19
69058;BME280;56128;37.534;-122.308;2023-08-17T00:59:13;100950.31;;;27.68;60.83
69058;BME280;56128;37.534;-122.308;2023-08-17T01:01:39;100949.66;;;27.73;62.32
69058;BME280;56128;37.534;-122.308;2023-08-17T01:04:05;100955.59;;;27.69;66.51
69058;BME280;56128;37.534;-122.308;2023-08-17T01:06:31;100946.22;;;27.52;68.11
69058;BME280;56128;37.534;-122.308;2023-08-17T01:08:56;100948.75;;;27.28;69.08
69058;BME280;56128;37.534;-122.308;2023-08-17T01:16:40;100924.94;;;26.90;71.38
69058;BME280;56128;37.534;-122.308;2023-08-17T01:19:08;100932.19;;;26.84;72.88
69058;BME280;56128;37.534;-122.308;2023-08-17T01:21:44;100925.53;;;26.60;73.75
69058;BME280;56128;37.534;-122.308;2023-08-17T01:24:14;100926.94;;;26.76;65.19
69058;BME280;56128;37.534;-122.308;2023-08-17T01:26:40;100932.28;;;26.64;62.62
69058;BME280;56128;37.534;-122.308;2023-08-17T01:29:06;100929.72;;;26.63;63.69
69058;BME280;56128;37.534;-122.308;2023-08-17T01:34:11;100914.53;;;26.60;61.37
69058;BME280;56128;37.534;-122.308;2023-08-17T01:36:46;100918.16;;;26.54;61.48
69058;BME280;56128;37.534;-122.308;2023-08-17T01:39:12;100913.13;;;26.51;60.82
69058;BME280;56128;37.534;-122.308;2023-08-17T01:41:38;100923.94;;;26.46;60.17
69058;BME280;56128;37.534;-122.308;2023-08-17T01:44:06;100921.41;;;26.37;59.96
69058;BME280;56128;37.534;-122.308;2023-08-17T01:46:32;100909.22;;;26.33;60.10
69058;BME280;56128;37.534;-122.308;2023-08-17T01:48:58;100906.69;;;26.32;60.23
69058;BME280;56128;37.534;-122.308;2023-08-17T01:51:24;100911.59;;;26.23;60.83
69058;BME280;56128;37.534;-122.308;2023-08-17T01:53:50;100911.41;;;26.18;62.19
69058;BME280;56128;37.534;-122.308;2023-08-17T01:56:16;100910.13;;;26.14;62.43
69058;BME280;56128;37.534;-122.308;2023-08-17T01:58:42;100910.38;;;26.05;63.16
69058;BME280;56128;37.534;-122.308;2023-08-17T02:01:08;100903.81;;;26.00;63.37
69058;BME280;56128;37.534;-122.308;2023-08-17T02:03:34;100896.91;;;25.90;63.75
69058;BME280;56128;37.534;-122.308;2023-08-17T02:06:00;100897.13;;;25.82;64.54
69058;BME280;56128;37.534;-122.308;2023-08-17T02:08:26;100891.69;;;25.75;65.23
69058;BME280;56128;37.534;-122.308;2023-08-17T02:10:51;100884.94;;;25.71;65.80
69058;BME280;56128;37.534;-122.308;2023-08-17T02:13:18;100899.69;;;25.64;64.50
69058;BME280;56128;37.534;-122.308;2023-08-17T02:15:44;100896.34;;;25.55;64.04
69058;BME280;56128;37.534;-122.308;2023-08-17T02:18:09;100899.72;;;25.43;63.07
69058;BME280;56128;37.534;-122.308;2023-08-17T02:20:35;100891.53;;;25.30;64.53
69058;BME280;56128;37.534;-122.308;2023-08-17T02:23:01;100881.63;;;25.29;66.61
69058;BME280;56128;37.534;-122.308;2023-08-17T02:25:27;100874.03;;;25.18;65.49
69058;BME280;56128;37.534;-122.308;2023-08-17T02:27:59;100876.97;;;25.09;66.63
69058;BME280;56128;37.534;-122.308;2023-08-17T02:30:25;100874.03;;;24.98;67.89
69058;BME280;56128;37.534;-122.308;2023-08-17T02:32:51;100876.75;;;24.91;68.00
69058;BME280;56128;37.534;-122.308;2023-08-17T02:35:17;100872.56;;;24.82;69.29
69058;BME280;56128;37.534;-122.308;2023-08-17T02:37:43;100877.81;;;24.76;70.32
69058;BME280;56128;37.534;-122.308;2023-08-17T02:40:09;100885.16;;;24.69;71.59
69058;BME280;56128;37.534;-122.308;2023-08-17T02:42:35;100872.69;;;24.53;71.57
69058;BME280;56128;37.534;-122.308;2023-08-17T02:45:00;100878.56;;;24.43;72.71
69058;BME280;56128;37.534;-122.308;2023-08-17T02:47:26;100874.97;;;24.36;73.12
69058;BME280;56128;37.534;-122.308;2023-08-17T02:49:52;100871.16;;;24.30;74.55
69058;BME280;56128;37.534;-122.308;2023-08-17T02:52:18;100879.75;;;24.21;74.83
69058;BME280;56128;37.534;-122.308;2023-08-17T02:54:44;100888.13;;;24.12;75.38
69058;BME280;56128;37.534;-122.308;2023-08-17T02:57:09;100894.38;;;23.99;76.71
69058;BME280;56128;37.534;-122.308;2023-08-17T02:59:35;100898.50;;;23.89;76.60
69058;BME280;56128;37.534;-122.308;2023-08-17T03:02:01;100902.22;;;23.74;78.76
69058;BME280;56128;37.534;-122.308;2023-08-17T03:04:27;100905.47;;;23.63;78.98
69058;BME280;56128;37.534;-122.308;2023-08-17T03:06:52;100902.47;;;23.51;80.07
69058;BME280;56128;37.534;-122.308;2023-08-17T03:09:18;100911.00;;;23.41;80.60
69058;BME280;56128;37.534;-122.308;2023-08-17T03:11:44;100924.63;;;23.34;83.11
69058;BME280;56128;37.534;-122.308;2023-08-17T03:14:10;100925.53;;;23.20;84.07
69058;BME280;56128;37.534;-122.308;2023-08-17T03:16:35;100924.78;;;23.11;85.22
69058;BME280;56128;37.534;-122.308;2023-08-17T03:19:01;100924.94;;;23.03;85.63
69058;BME280;56128;37.534;-122.308;2023-08-17T03:21:27;100929.63;;;22.88;86.14
69058;BME280;56128;37.534;-122.308;2023-08-17T03:23:53;100930.59;;;22.80;86.08
69058;BME280;56128;37.534;-122.308;2023-08-17T03:26:19;100919.88;;;22.78;86.30
69058;BME280;56128;37.534;-122.308;2023-08-17T03:28:45;100932.22;;;22.74;87.04
69058;BME280;56128;37.534;-122.308;2023-08-17T03:31:10;100939.88;;;22.64;86.53
69058;BME280;56128;37.534;-122.308;2023-08-17T03:33:36;100940.00;;;22.56;85.44
69058;BME280;56128;37.534;-122.308;2023-08-17T03:36:02;100949.03;;;22.41;85.59
69058;BME280;56128;37.534;-122.308;2023-08-17T03:38:28;100961.84;;;22.41;84.89
69058;BME280;56128;37.534;-122.308;2023-08-17T03:40:54;100962.34;;;22.36;83.36
69058;BME280;56128;37.534;-122.308;2023-08-17T03:43:20;100969.03;;;22.33;83.09
69058;BME280;56128;37.534;-122.308;2023-08-17T03:45:46;100966.25;;;22.27;83.89
69058;BME280;56128;37.534;-122.308;2023-08-17T03:48:12;100968.22;;;22.18;83.58
69058;BME280;56128;37.534;-122.308;2023-08-17T03:50:37;100964.00;;;22.15;93.88
69058;BME280;56128;37.534;-122.308;2023-08-17T03:53:03;100970.09;;;21.87;100.00
69058;BME280;56128;37.534;-122.308;2023-08-17T03:55:29;100957.44;;;21.80;100.00
69058;BME280;56128;37.534;-122.308;2023-08-17T03:57:55;100969.50;;;21.77;100.00
69058;BME280;56128;37.534;-122.308;2023-08-17T04:00:21;100960.97;;;21.65;100.00
69058;BME280;56128;37.534;-122.308;2023-08-17T04:02:47;100963.03;;;21.40;100.00
69058;BME280;56128;37.534;-122.308;2023-08-17T04:05:13;100970.63;;;21.30;100.00
69058;BME280;56128;37.534;-122.308;2023-08-17T04:08:00;100973.78;;;21.18;100.00
69058;BME280;56128;37.534;-122.308;2023-08-17T04:10:28;100983.00;;;21.09;100.00
69058;BME280;56128;37.534;-122.308;2023-08-17T04:12:54;100986.75;;;21.08;100.00
69058;BME280;56128;37.534;-122.308;2023-08-17T04:15:20;100983.72;;;21.03;100.00
69058;BME280;56128;37.534;-122.308;2023-08-17T04:17:46;100981.69;;;21.05;100.00
69058;BME280;56128;37.534;-122.308;2023-08-17T04:20:11;100987.06;;;20.90;100.00
69058;BME280;56128;37.534;-122.308;2023-08-17T04:22:37;100990.69;;;20.82;100.00
69058;BME280;56128;37.534;-122.308;2023-08-17T04:25:03;100986.56;;;20.86;100.00
69058;BME280;56128;37.534;-122.308;2023-08-17T04:27:29;100978.94;;;20.82;100.00
69058;BME280;56128;37.534;-122.308;2023-08-17T04:29:55;100971.03;;;20.72;100.00
69058;BME280;56128;37.534;-122.308;2023-08-17T04:32:20;100975.25;;;20.66;100.00
69058;BME280;56128;37.534;-122.308;2023-08-17T04:34:46;100966.28;;;20.66;100.00
69058;BME280;56128;37.534;-122.308;2023-08-17T04:37:13;100972.25;;;20.61;100.00
69058;BME280;56128;37.534;-122.308;2023-08-17T04:39:39;100980.31;;;20.38;100.00
69058;BME280;56128;37.534;-122.308;2023-08-17T04:42:06;100993.97;;;20.21;100.00
69058;BME280;56128;37.534;-122.308;2023-08-17T04:44:32;100991.63;;;20.18;100.00
69058;BME280;56128;37.534;-122.308;2023-08-17T04:46:58;100996.38;;;20.16;100.00
69058;BME280;56128;37.534;-122.308;2023-08-17T04:49:24;100997.06;;;20.10;100.00
69058;BME280;56128;37.534;-122.308;2023-08-17T04:51:51;101003.69;;;20.07;100.00
69058;BME280;56128;37.534;-122.308;2023-08-17T04:54:17;101003.69;;;20.07;100.00
69058;BME280;56128;37.534;-122.308;2023-08-17T04:56:43;101007.78;;;19.95;100.00
69058;BME280;56128;37.534;-122.308;2023-08-17T04:59:09;101014.09;;;19.87;100.00
69058;BME280;56128;37.534;-122.308;2023-08-17T05:01:34;101017.13;;;19.76;100.00
69058;BME280;56128;37.534;-122.308;2023-08-17T05:04:01;101021.91;;;19.66;100.00
69058;BME280;56128;37.534;-122.308;2023-08-17T05:06:30;101014.94;;;19.55;100.00
69058;BME280;56128;37.534;-122.308;2023-08-17T05:08:56;101025.28;;;19.51;100.00
69058;BME280;56128;37.534;-122.308;2023-08-17T05:11:22;101028.69;;;19.37;100.00
69058;BME280;56128;37.534;-122.308;2023-08-17T05:13:48;101029.03;;;19.25;100.00
69058;BME280;56128;37.534;-122.308;2023-08-17T05:16:14;101036.47;;;19.23;100.00
69058;BME280;56128;37.534;-122.308;2023-08-17T05:18:40;101039.50;;;19.12;100.00
69058;BME280;56128;37.534;-122.308;2023-08-17T05:21:05;101033.88;;;18.97;100.00
69058;BME280;56128;37.534;-122.308;2023-08-17T05:23:31;101036.59;;;18.97;100.00
69058;BME280;56128;37.534;-122.308;2023-08-17T05:25:57;101030.09;;;18.90;100.00
69058;BME280;56128;37.534;-122.308;2023-08-17T05:28:23;101033.28;;;18.77;100.00
69058;BME280;56128;37.534;-122.308;2023-08-17T05:30:49;101029.56;;;18.78;100.00
69058;BME280;56128;37.534;-122.308;2023-08-17T05:33:15;101030.41;;;18.78;100.00
69058;BME280;56128;37.534;-122.308;2023-08-17T05:35:41;101019.38;;;18.72;100.00
69058;BME280;56128;37.534;-122.308;2023-08-17T05:38:08;101010.88;;;18.66;100.00
69058;BME280;56128;37.534;-122.308;2023-08-17T05:40:34;101002.94;;;18.65;100.00
69058;BME280;56128;37.534;-122.308;2023-08-17T05:43:00;101007.34;;;18.66;100.00
69058;BME280;56128;37.534;-122.308;2023-08-17T05:45:26;101006.94;;;18.53;100.00
69058;BME280;56128;37.534;-122.308;2023-08-17T05:47:52;101005.41;;;18.50;100.00
69058;BME280;56128;37.534;-122.308;2023-08-17T05:50:18;100996.28;;;18.51;100.00
69058;BME280;56128;37.534;-122.308;2023-08-17T05:52:44;100991.34;;;18.46;100.00
69058;BME280;56128;37.534;-122.308;2023-08-17T05:55:10;100995.22;;;18.44;100.00
69058;BME280;56128;37.534;-122.308;2023-08-17T05:57:35;100983.16;;;18.38;100.00
69058;BME280;56128;37.534;-122.308;2023-08-17T06:00:01;100987.38;;;18.32;100.00
69058;BME280;56128;37.534;-122.308;2023-08-17T06:02:27;100993.13;;;18.29;100.00
69058;BME280;56128;37.534;-122.308;2023-08-17T06:04:53;100995.28;;;18.26;100.00
69058;BME280;56128;37.534;-122.308;2023-08-17T06:07:19;100989.69;;;18.19;100.00
69058;BME280;56128;37.534;-122.308;2023-08-17T06:09:45;100989.03;;;18.17;100.00
69058;BME280;56128;37.534;-122.308;2023-08-17T06:12:11;100989.31;;;18.14;100.00
69058;BME280;56128;37.534;-122.308;2023-08-17T06:14:36;100996.91;;;18.10;100.00
69058;BME280;56128;37.534;-122.308;2023-08-17T06:17:02;100998.09;;;18.08;100.00
69058;BME280;56128;37.534;-122.308;2023-08-17T06:19:28;100994.84;;;18.04;100.00
69058;BME280;56128;37.534;-122.308;2023-08-17T06:21:54;100998.44;;;18.05;100.00
69058;BME280;56128;37.534;-122.308;2023-08-17T06:24:20;101002.31;;;18.02;100.00
69058;BME280;56128;37.534;-122.308;2023-08-17T06:26:46;101000.78;;;17.99;100.00
69058;BME280;56128;37.534;-122.308;2023-08-17T06:29:11;101002.78;;;17.97;100.00
69058;BME280;56128;37.534;-122.308;2023-08-17T06:31:37;100999.38;;;17.95;100.00
69058;BME280;56128;37.534;-122.308;2023-08-17T06:34:03;101000.38;;;17.94;100.00
69058;BME280;56128;37.534;-122.308;2023-08-17T06:36:32;101012.84;;;17.87;100.00
69058;BME280;56128;37.534;-122.308;2023-08-17T06:38:58;101007.91;;;17.82;100.00
69058;BME280;56128;37.534;-122.308;2023-08-17T06:41:24;100999.59;;;17.84;100.00
69058;BME280;56128;37.534;-122.308;2023-08-17T06:43:50;101008.72;;;17.83;100.00
69058;BME280;56128;37.534;-122.308;2023-08-17T06:46:16;101016.47;;;17.78;100.00
69058;BME280;56128;37.534;-122.308;2023-08-17T06:48:43;101007.53;;;17.77;100.00
69058;BME280;56128;37.534;-122.308;2023-08-17T06:51:08;100995.53;;;17.80;100.00
69058;BME280;56128;37.534;-122.308;2023-08-17T06:53:34;101011.06;;;17.78;100.00
69058;BME280;56128;37.534;-122.308;2023-08-17T06:56:00;101009.69;;;17.74;100.00
69058;BME280;56128;37.534;-122.308;2023-08-17T06:58:26;101004.97;;;17.76;100.00
69058;BME280;56128;37.534;-122.308;2023-08-17T07:00:52;101005.81;;;17.76;100.00
69058;BME280;56128;37.534;-122.308;2023-08-17T07:03:18;101008.69;;;17.75;100.00
69058;BME280;56128;37.534;-122.308;2023-08-17T07:05:44;101012.41;;;17.74;100.00
69058;BME280;56128;37.534;-122.308;2023-08-17T07:08:09;101004.63;;;17.71;100.00
69058;BME280;56128;37.534;-122.308;2023-08-17T07:10:35;101008.31;;;17.69;100.00
69058;BME280;56128;37.534;-122.308;2023-08-17T07:13:01;100995.97;;;17.67;100.00
69058;BME280;56128;37.534;-122.308;2023-08-17T07:15:30;100991.09;;;17.71;100.00
69058;BME280;56128;37.534;-122.308;2023-08-17T07:17:56;100987.31;;;17.63;100.00
69058;BME280;56128;37.534;-122.308;2023-08-17T07:20:22;100984.22;;;17.58;100.00
69058;BME280;56128;37.534;-122.308;2023-08-17T07:22:48;100991.97;;;17.53;100.00
69058;BME280;56128;37.534;-122.308;2023-08-17T07:25:13;100987.03;;;17.48;100.00
69058;BME280;56128;37.534;-122.308;2023-08-17T07:27:39;100995.22;;;17.39;100.00
69058;BME280;56128;37.534;-122.308;2023-08-17T07:30:05;100992.13;;;17.33;100.00
69058;BME280;56128;37.534;-122.308;2023-08-17T07:32:33;100994.13;;;17.31;100.00
69058;BME280;56128;37.534;-122.308;2023-08-17T07:34:59;100983.94;;;17.25;100.00
69058;BME280;56128;37.534;-122.308;2023-08-17T07:37:24;100985.63;;;17.26;100.00
69058;BME280;56128;37.534;-122.308;2023-08-17T07:39:57;100989.66;;;17.22;100.00
69058;BME280;56128;37.534;-122.308;2023-08-17T07:42:23;100985.88;;;17.15;100.00
69058;BME280;56128;37.534;-122.308;2023-08-17T07:44:49;100987.88;;;17.13;100.00
69058;BME280;56128;37.534;-122.308;2023-08-17T07:47:14;100990.59;;;17.13;100.00
69058;BME280;56128;37.534;-122.308;2023-08-17T07:49:40;100989.38;;;17.07;100.00
69058;BME280;56128;37.534;-122.308;2023-08-17T07:52:06;100994.94;;;17.06;100.00
69058;BME280;56128;37.534;-122.308;2023-08-17T07:54:32;101002.94;;;16.97;100.00
69058;BME280;56128;37.534;-122.308;2023-08-17T07:56:59;100996.41;;;16.90;100.00
69058;BME280;56128;37.534;-122.308;2023-08-17T07:59:24;100992.75;;;16.91;100.00
69058;BME280;56128;37.534;-122.308;2023-08-17T08:01:50;101005.44;;;16.81;100.00
69058;BME280;56128;37.534;-122.308;2023-08-17T08:04:16;101000.34;;;16.78;100.00
69058;BME280;56128;37.534;-122.308;2023-08-17T08:06:42;100989.56;;;16.78;100.00
69058;BME280;56128;37.534;-122.308;2023-08-17T08:09:08;100993.84;;;16.70;100.00
69058;BME280;56128;37.534;-122.308;2023-08-17T08:11:33;100987.97;;;16.57;100.00
69058;BME280;56128;37.534;-122.308;2023-08-17T08:13:59;100984.41;;;16.57;100.00
69058;BME280;56128;37.534;-122.308;2023-08-17T08:16:26;100986.41;;;16.54;100.00
69058;BME280;56128;37.534;-122.308;2023-08-17T08:18:52;100977.31;;;16.55;100.00
69058;BME280;56128;37.534;-122.308;2023-08-17T08:21:17;100972.50;;;16.49;100.00
69058;BME280;56128;37.534;-122.308;2023-08-17T08:23:43;100965.72;;;16.45;100.00
69058;BME280;56128;37.534;-122.308;2023-08-17T08:26:09;100971.84;;;16.37;100.00
69058;BME280;56128;37.534;-122.308;2023-08-17T08:28:35;100961.91;;;16.38;100.00
69058;BME280;56128;37.534;-122.308;2023-08-17T08:31:01;100959.38;;;16.36;100.00
69058;BME280;56128;37.534;-122.308;2023-08-17T08:33:28;100957.34;;;16.38;100.00
69058;BME280;56128;37.534;-122.308;2023-08-17T08:35:54;100947.53;;;16.37;100.00
69058;BME280;56128;37.534;-122.308;2023-08-17T08:38:19;100941.47;;;16.35;100.00
69058;BME280;56128;37.534;-122.308;2023-08-17T08:40:46;100936.22;;;16.34;100.00
69058;BME280;56128;37.534;-122.308;2023-08-17T08:43:12;100925.94;;;16.37;100.00
69058;BME280;56128;37.534;-122.308;2023-08-17T08:45:38;100927.63;;;16.38;100.00
69058;BME280;56128;37.534;-122.308;2023-08-17T08:48:07;100919.84;;;16.35;100.00
69058;BME280;56128;37.534;-122.308;2023-08-17T08:50:35;100914.59;;;16.34;100.00
69058;BME280;56128;37.534;-122.308;2023-08-17T08:53:02;100921.00;;;16.33;100.00
69058;BME280;56128;37.534;-122.308;2023-08-17T08:55:49;100922.16;;;16.30;100.00
69058;BME280;56128;37.534;-122.308;2023-08-17T08:58:17;100918.31;;;16.33;100.00
69058;BME280;56128;37.534;-122.308;2023-08-17T09:00:45;100926.25;;;16.34;100.00
69058;BME280;56128;37.534;-122.308;2023-08-17T09:03:11;100920.84;;;16.34;100.00
69058;BME280;56128;37.534;-122.308;2023-08-17T09:05:37;100916.28;;;16.35;100.00
69058;BME280;56128;37.534;-122.308;2023-08-17T09:08:03;100920.13;;;16.32;100.00
69058;BME280;56128;37.534;-122.308;2023-08-17T09:10:30;100923.72;;;16.33;100.00
69058;BME280;56128;37.534;-122.308;2023-08-17T09:12:56;100931.09;;;16.31;100.00
69058;BME280;56128;37.534;-122.308;2023-08-17T09:15:22;100931.09;;;16.31;100.00
69058;BME280;56128;37.534;-122.308;2023-08-17T09:17:47;100924.69;;;16.32;100.00
69058;BME280;56128;37.534;-122.308;2023-08-17T09:20:34;100930.25;;;16.30;100.00
69058;BME280;56128;37.534;-122.308;2023-08-17T09:23:00;100929.16;;;16.23;100.00
69058;BME280;56128;37.534;-122.308;2023-08-17T09:25:28;100930.31;;;16.20;100.00
69058;BME280;56128;37.534;-122.308;2023-08-17T09:27:54;100920.09;;;16.14;100.00
69058;BME280;56128;37.534;-122.308;2023-08-17T09:30:22;100916.00;;;16.10;100.00
69058;BME280;56128;37.534;-122.308;2023-08-17T09:32:48;100918.16;;;16.06;100.00
69058;BME280;56128;37.534;-122.308;2023-08-17T09:35:14;100914.59;;;16.06;100.00
69058;BME280;56128;37.534;-122.308;2023-08-17T09:37:40;100923.00;;;16.03;100.00
69058;BME280;56128;37.534;-122.308;2023-08-17T09:40:06;100922.44;;;15.99;100.00
69058;BME280;56128;37.534;-122.308;2023-08-17T09:42:35;100924.16;;;16.00;100.00
69058;BME280;56128;37.534;-122.308;2023-08-17T09:45:01;100928.28;;;15.95;100.00
69058;BME280;56128;37.534;-122.308;2023-08-17T09:47:27;100922.31;;;15.91;100.00
69058;BME280;56128;37.534;-122.308;2023-08-17T09:49:54;100918.78;;;15.90;100.00
69058;BME280;56128;37.534;-122.308;2023-08-17T09:52:23;100926.16;;;15.88;100.00
69058;BME280;56128;37.534;-122.308;2023-08-17T09:54:49;100926.47;;;15.85;100.00
69058;BME280;56128;37.534;-122.308;2023-08-17T09:57:17;100925.06;;;15.81;100.00
69058;BME280;56128;37.534;-122.308;2023-08-17T09:59:43;100923.50;;;15.79;100.00
69058;BME280;56128;37.534;-122.308;2023-08-17T10:02:17;100925.75;;;15.73;100.00
69058;BME280;56128;37.534;-122.308;2023-08-17T10:04:47;100925.34;;;15.68;100.00
69058;BME280;56128;37.534;-122.308;2023-08-17T10:07:15;100916.59;;;15.66;100.00
69058;BME280;56128;37.534;-122.308;2023-08-17T10:09:42;100916.03;;;15.63;100.00
69058;BME280;56128;37.534;-122.308;2023-08-17T10:12:12;100911.78;;;15.60;100.00
69058;BME280;56128;37.534;-122.308;2023-08-17T10:14:42;100907.38;;;15.59;100.00
69058;BME280;56128;37.534;-122.308;2023-08-17T10:17:12;100910.34;;;15.56;100.00
69058;BME280;56128;37.534;-122.308;2023-08-17T10:19:43;100907.22;;;15.51;100.00
69058;BME280;56128;37.534;-122.308;2023-08-17T10:22:26;100911.53;;;15.44;100.00
69058;BME280;56128;37.534;-122.308;2023-08-17T10:24:55;100909.97;;;15.41;100.00
69058;BME280;56128;37.534;-122.308;2023-08-17T10:27:21;100909.84;;;15.33;100.00
69058;BME280;56128;37.534;-122.308;2023-08-17T10:29:47;100900.78;;;15.24;100.00
69058;BME280;56128;37.534;-122.308;2023-08-17T10:32:13;100912.69;;;15.21;100.00
69058;BME280;56128;37.534;-122.308;2023-08-17T10:34:39;100908.44;;;15.19;100.00
69058;BME280;56128;37.534;-122.308;2023-08-17T10:37:06;100906.03;;;15.16;100.00
69058;BME280;56128;37.534;-122.308;2023-08-17T10:39:32;100904.47;;;15.13;100.00
69058;BME280;56128;37.534;-122.308;2023-08-17T10:42:00;100898.66;;;15.08;100.00
69058;BME280;56128;37.534;-122.308;2023-08-17T10:44:43;100906.16;;;15.04;100.00
69058;BME280;56128;37.534;-122.308;2023-08-17T10:47:25;100904.75;;;15.00;100.00
69058;BME280;56128;37.534;-122.308;2023-08-17T10:50:38;100903.34;;;14.96;100.00
69058;BME280;56128;37.534;-122.308;2023-08-17T10:52:38;100904.63;;;14.92;100.00
69058;BME280;56128;37.534;-122.308;2023-08-17T10:55:04;100907.31;;;14.92;100.00
69058;BME280;56128;37.534;-122.308;2023-08-17T10:57:37;100896.84;;;14.89;100.00
69058;BME280;56128;37.534;-122.308;2023-08-17T11:00:13;100895.28;;;14.86;100.00
69058;BME280;56128;37.534;-122.308;2023-08-17T11:02:42;100901.78;;;14.84;100.00
69058;BME280;56128;37.534;-122.308;2023-08-17T11:05:08;100903.91;;;14.80;100.00
69058;BME280;56128;37.534;-122.308;2023-08-17T11:07:44;100895.13;;;14.78;100.00
69058;BME280;56128;37.534;-122.308;2023-08-17T11:12:40;100906.75;;;14.69;100.00
69058;BME280;56128;37.534;-122.308;2023-08-17T11:15:06;100899.19;;;14.63;100.00
69058;BME280;56128;37.534;-122.308;2023-08-17T11:17:32;100903.03;;;14.60;100.00
69058;BME280;56128;37.534;-122.308;2023-08-17T11:19:58;100905.88;;;14.58;100.00
69058;BME280;56128;37.534;-122.308;2023-08-17T11:22:24;100892.81;;;14.54;100.00
69058;BME280;56128;37.534;-122.308;2023-08-17T11:24:50;100899.63;;;14.48;100.00
69058;BME280;56128;37.534;-122.308;2023-08-17T11:27:16;100898.75;;;14.48;100.00
69058;BME280;56128;37.534;-122.308;2023-08-17T11:29:42;100901.28;;;14.49;100.00
69058;BME280;56128;37.534;-122.308;2023-08-17T11:32:08;100898.50;;;14.51;100.00
69058;BME280;56128;37.534;-122.308;2023-08-17T11:34:35;100901.19;;;14.51;100.00
69058;BME280;56128;37.534;-122.308;2023-08-17T11:37:01;100891.09;;;14.53;100.00
69058;BME280;56128;37.534;-122.308;2023-08-17T11:39:27;100891.81;;;14.55;100.00
69058;BME280;56128;37.534;-122.308;2023-08-17T11:41:52;100894.78;;;14.52;100.00
69058;BME280;56128;37.534;-122.308;2023-08-17T11:44:18;100892.09;;;14.52;100.00
69058;BME280;56128;37.534;-122.308;2023-08-17T11:46:47;100899.31;;;14.51;100.00
69058;BME280;56128;37.534;-122.308;2023-08-17T11:49:13;100898.06;;;14.55;100.00
69058;BME280;56128;37.534;-122.308;2023-08-17T11:51:38;100896.78;;;14.50;100.00
69058;BME280;56128;37.534;-122.308;2023-08-17T11:54:05;100899.72;;;14.47;100.00
69058;BME280;56128;37.534;-122.308;2023-08-17T11:56:33;100900.16;;;14.42;100.00
69058;BME280;56128;37.534;-122.308;2023-08-17T11:58:59;100904.69;;;14.41;100.00
69058;BME280;56128;37.534;-122.308;2023-08-17T12:01:33;100902.00;;;14.41;100.00
69058;BME280;56128;37.534;-122.308;2023-08-17T12:04:00;100910.06;;;14.41;100.00
69058;BME280;56128;37.534;-122.308;2023-08-17T12:06:26;100905.56;;;14.42;100.00
69058;BME280;56128;37.534;-122.308;2023-08-17T12:08:52;100901.31;;;14.39;100.00
69058;BME280;56128;37.534;-122.308;2023-08-17T12:11:18;100907.81;;;14.37;100.00
69058;BME280;56128;37.534;-122.308;2023-08-17T12:13:46;100916.00;;;14.35;100.00
69058;BME280;56128;37.534;-122.308;2023-08-17T12:16:14;100917.28;;;14.31;100.00
69058;BME280;56128;37.534;-122.308;2023-08-17T12:18:40;100916.44;;;14.31;100.00
69058;BME280;56128;37.534;-122.308;2023-08-17T12:21:09;100918.25;;;14.30;100.00